Time;durP1;ratioP1;P1;durP2;ratioP2;P2;SDS_P1;SDS_P2;PMS_P1;PMS_P2;Temp;Humidity;BMP_temperature;BMP_pressure;BME280_temperature;BME280_humidity;BME280_pressure;Samples;Min_cycle;Max_cycle;Signal;HPM_P1;HPM_P2
2022/03/03 00:02:15;;;;;;;4.65;3.42;;;;;;;;;;5078953;28;20058;-74
2022/03/03 00:04:41;;;;;;;5.30;4.15;;;;;;;;;;5081821;28;20098;-74
2022/03/03 00:07:07;;;;;;;5.50;3.65;;;;;;;;;;5081518;28;20476;-73
2022/03/03 00:09:33;;;;;;;6.43;3.45;;;;;;;;;;5081500;28;20043;-77
2022/03/03 00:11:59;;;;;;;7.43;4.28;;;;;;;;;;5082246;28;20035;-78
2022/03/03 00:14:25;;;;;;;5.28;3.65;;;;;;;;;;5081209;28;20767;-77
2022/03/03 00:16:52;;;;;;;10.15;4.53;;;;;;;;;;5081263;28;20044;-78
2022/03/03 00:19:18;;;;;;;4.22;3.83;;;;;;;;;;5081750;28;20651;-73
2022/03/03 00:21:44;;;;;;;13.05;3.90;;;;;;;;;;5081237;28;20035;-72
2022/03/03 00:24:10;;;;;;;4.68;3.35;;;;;;;;;;5081019;28;20488;-76
2022/03/03 00:26:36;;;;;;;4.40;3.42;;;;;;;;;;5081578;28;20047;-75
2022/03/03 00:29:03;;;;;;;4.50;3.55;;;;;;;;;;5081659;28;20020;-77
2022/03/03 00:31:29;;;;;;;4.60;3.40;;;;;;;;;;5082043;28;20046;-74
2022/03/03 00:33:55;;;;;;;6.10;3.72;;;;;;;;;;5083853;28;20024;-74
2022/03/03 00:36:21;;;;;;;4.72;3.50;;;;;;;;;;5085911;28;20028;-76
2022/03/03 00:38:48;;;;;;;5.05;3.40;;;;;;;;;;5084850;28;20609;-77
2022/03/03 00:41:14;;;;;;;4.20;3.47;;;;;;;;;;5085253;28;20476;-77
2022/03/03 00:43:40;;;;;;;4.60;3.08;;;;;;;;;;5085385;28;20032;-77
2022/03/03 00:46:06;;;;;;;7.25;3.88;;;;;;;;;;5085576;28;20012;-76
2022/03/03 00:48:33;;;;;;;4.20;3.17;;;;;;;;;;5067381;28;20024;-76
2022/03/03 00:51:00;;;;;;;4.35;3.47;;;;;;;;;;5085399;28;20049;-76
2022/03/03 00:53:26;;;;;;;3.40;3.10;;;;;;;;;;5085521;28;20376;-77
2022/03/03 00:55:52;;;;;;;4.35;3.10;;;;;;;;;;5085156;28;20135;-77
2022/03/03 00:58:18;;;;;;;5.18;3.25;;;;;;;;;;5085028;28;20028;-76
2022/03/03 01:00:44;;;;;;;8.00;3.60;;;;;;;;;;5085050;28;20028;-75
2022/03/03 01:03:10;;;;;;;5.40;3.00;;;;;;;;;;5084588;28;20100;-76
2022/03/03 01:05:37;;;;;;;5.07;3.03;;;;;;;;;;5085313;28;20032;-76
2022/03/03 01:08:04;;;;;;;3.75;2.95;;;;;;;;;;5085020;28;20544;-76
2022/03/03 01:10:30;;;;;;;5.10;3.40;;;;;;;;;;5084617;28;20050;-76
2022/03/03 01:12:57;;;;;;;4.80;2.83;;;;;;;;;;5084883;28;20028;-75
2022/03/03 01:15:23;;;;;;;4.03;3.00;;;;;;;;;;5084530;28;20365;-76
2022/03/03 01:17:49;;;;;;;3.88;2.92;;;;;;;;;;5084509;28;20073;-75
2022/03/03 01:20:15;;;;;;;5.80;3.10;;;;;;;;;;5084987;28;20085;-77
2022/03/03 01:22:42;;;;;;;4.40;2.72;;;;;;;;;;5082898;28;20032;-77
2022/03/03 01:25:08;;;;;;;4.78;3.03;;;;;;;;;;5084545;28;20024;-77
2022/03/03 01:27:34;;;;;;;6.38;2.85;;;;;;;;;;5084598;28;20070;-77
2022/03/03 01:30:01;;;;;;;3.47;2.75;;;;;;;;;;5084775;28;20028;-75
2022/03/03 01:32:27;;;;;;;4.65;3.15;;;;;;;;;;5084770;28;20482;-76
2022/03/03 01:34:54;;;;;;;4.22;3.25;;;;;;;;;;5084614;28;20213;-77
2022/03/03 01:37:20;;;;;;;5.30;2.95;;;;;;;;;;5084359;28;20070;-74
2022/03/03 01:39:46;;;;;;;3.72;3.15;;;;;;;;;;5084240;28;20032;-73
2022/03/03 01:42:14;;;;;;;5.30;3.22;;;;;;;;;;5085003;28;20072;-77
2022/03/03 01:44:43;;;;;;;4.30;3.30;;;;;;;;;;5083720;28;20051;-76
2022/03/03 01:47:15;;;;;;;6.18;2.70;;;;;;;;;;5083812;28;20131;-75
2022/03/03 01:49:42;;;;;;;4.97;2.75;;;;;;;;;;5084267;28;20601;-73
2022/03/03 01:52:08;;;;;;;3.17;2.63;;;;;;;;;;5082133;28;20476;-74
2022/03/03 01:54:34;;;;;;;4.50;2.75;;;;;;;;;;5083574;28;20047;-72
2022/03/03 01:57:00;;;;;;;5.95;3.00;;;;;;;;;;5083619;28;20154;-70
2022/03/03 01:59:26;;;;;;;6.20;3.40;;;;;;;;;;5084021;28;20024;-76
2022/03/03 02:01:53;;;;;;;4.53;2.67;;;;;;;;;;5084187;28;20515;-75
2022/03/03 02:04:19;;;;;;;7.97;2.72;;;;;;;;;;5083685;28;20068;-77
2022/03/03 02:06:45;;;;;;;4.07;2.95;;;;;;;;;;5083998;28;20024;-77
2022/03/03 02:09:11;;;;;;;5.50;3.08;;;;;;;;;;5066069;28;20063;-73
2022/03/03 02:11:37;;;;;;;3.15;2.78;;;;;;;;;;5083935;28;20506;-77
2022/03/03 02:14:04;;;;;;;3.95;2.85;;;;;;;;;;5083125;28;20507;-76
2022/03/03 02:16:30;;;;;;;5.63;2.97;;;;;;;;;;5083087;28;20036;-72
2022/03/03 02:18:56;;;;;;;5.13;3.15;;;;;;;;;;5083709;28;20056;-77
2022/03/03 02:21:22;;;;;;;3.92;2.85;;;;;;;;;;5083107;28;20048;-73
2022/03/03 02:23:49;;;;;;;5.00;2.97;;;;;;;;;;5081562;28;20100;-72
2022/03/03 02:26:22;;;;;;;8.32;3.58;;;;;;;;;;5083404;28;20032;-70
2022/03/03 02:28:49;;;;;;;4.50;3.50;;;;;;;;;;5083766;28;20020;-77
2022/03/03 02:31:16;;;;;;;6.00;3.40;;;;;;;;;;5083486;28;20028;-73
2022/03/03 02:33:42;;;;;;;5.32;3.20;;;;;;;;;;5083300;28;20028;-71
2022/03/03 02:36:17;;;;;;;3.97;3.10;;;;;;;;;;5083342;28;20032;-70
2022/03/03 02:38:44;;;;;;;5.38;3.88;;;;;;;;;;5084079;28;20031;-71
2022/03/03 02:41:10;;;;;;;3.72;3.00;;;;;;;;;;5085210;28;20024;-73
2022/03/03 02:43:36;;;;;;;5.80;3.47;;;;;;;;;;5085180;28;20039;-77
2022/03/03 02:46:02;;;;;;;5.10;3.30;;;;;;;;;;5085628;28;20031;-70
2022/03/03 02:48:29;;;;;;;4.72;3.53;;;;;;;;;;5085408;28;20020;-70
2022/03/03 02:50:55;;;;;;;5.95;3.83;;;;;;;;;;5085246;28;20031;-73
2022/03/03 02:53:21;;;;;;;4.65;3.38;;;;;;;;;;5085335;28;20024;-76
2022/03/03 02:55:47;;;;;;;4.70;3.30;;;;;;;;;;5084554;28;20365;-76
2022/03/03 02:58:13;;;;;;;7.53;3.38;;;;;;;;;;5067404;28;20559;-77
2022/03/03 03:00:42;;;;;;;4.45;3.10;;;;;;;;;;5064760;28;20016;-73
2022/03/03 03:03:09;;;;;;;5.90;3.17;;;;;;;;;;5073102;28;20032;-73
2022/03/03 03:05:36;;;;;;;4.85;3.15;;;;;;;;;;5084831;28;20023;-72
2022/03/03 03:08:03;;;;;;;6.35;3.65;;;;;;;;;;5085076;28;20129;-72
2022/03/03 03:10:29;;;;;;;4.32;3.50;;;;;;;;;;5084444;28;20034;-77
2022/03/03 03:12:55;;;;;;;4.80;3.13;;;;;;;;;;5084878;28;20058;-76
2022/03/03 03:15:21;;;;;;;5.63;3.38;;;;;;;;;;5084896;28;20026;-72
2022/03/03 03:17:48;;;;;;;5.40;3.45;;;;;;;;;;5084410;28;20071;-77
2022/03/03 03:20:14;;;;;;;5.70;3.30;;;;;;;;;;5084435;28;20150;-72
2022/03/03 03:22:40;;;;;;;4.70;3.40;;;;;;;;;;5081497;28;20162;-72
2022/03/03 03:25:08;;;;;;;6.40;4.03;;;;;;;;;;5062060;28;20108;-74
2022/03/03 03:27:34;;;;;;;5.25;3.00;;;;;;;;;;5062233;28;20063;-76
2022/03/03 03:30:01;;;;;;;5.45;2.95;;;;;;;;;;5060954;28;20090;-75
2022/03/03 03:32:27;;;;;;;6.05;4.05;;;;;;;;;;5062137;28;20465;-71
2022/03/03 03:34:53;;;;;;;4.28;2.75;;;;;;;;;;5062600;28;20115;-72
2022/03/03 03:37:19;;;;;;;5.65;2.70;;;;;;;;;;5062074;28;20419;-71
2022/03/03 03:39:46;;;;;;;3.63;2.45;;;;;;;;;;5080009;28;20756;-73
2022/03/03 03:42:12;;;;;;;5.57;2.72;;;;;;;;;;5082399;28;20039;-71
2022/03/03 03:44:39;;;;;;;4.45;2.60;;;;;;;;;;5082207;28;20396;-71
2022/03/03 03:47:06;;;;;;;6.88;2.90;;;;;;;;;;5082244;28;20035;-75
2022/03/03 03:49:33;;;;;;;5.82;3.05;;;;;;;;;;5082464;28;20111;-76
2022/03/03 03:51:59;;;;;;;3.10;2.53;;;;;;;;;;5081859;28;20598;-75
2022/03/03 03:54:25;;;;;;;3.38;2.60;;;;;;;;;;5064379;28;20028;-73
2022/03/03 03:56:51;;;;;;;3.50;2.90;;;;;;;;;;5082035;28;20036;-74
2022/03/03 03:59:18;;;;;;;4.72;2.88;;;;;;;;;;5081582;28;20093;-71
2022/03/03 04:01:44;;;;;;;4.35;3.20;;;;;;;;;;5080623;28;20077;-75
2022/03/03 04:04:10;;;;;;;3.58;3.20;;;;;;;;;;5079401;28;20044;-76
2022/03/03 04:06:36;;;;;;;5.72;2.80;;;;;;;;;;5079539;28;20028;-70
2022/03/03 04:09:03;;;;;;;5.15;3.65;;;;;;;;;;5080109;28;20028;-71
2022/03/03 04:11:30;;;;;;;7.40;3.15;;;;;;;;;;5083799;28;20028;-76
2022/03/03 04:13:59;;;;;;;3.65;2.85;;;;;;;;;;5083582;28;20050;-76
2022/03/03 04:16:25;;;;;;;4.00;2.83;;;;;;;;;;5083610;28;20036;-74
2022/03/03 04:18:52;;;;;;;4.25;2.50;;;;;;;;;;5083356;28;20035;-70
2022/03/03 04:21:18;;;;;;;3.53;2.80;;;;;;;;;;5083375;28;20115;-74
2022/03/03 04:23:44;;;;;;;4.28;3.20;;;;;;;;;;5081914;28;20510;-73
2022/03/03 04:26:10;;;;;;;4.95;2.80;;;;;;;;;;5083510;28;20032;-76
2022/03/03 04:28:36;;;;;;;6.30;2.80;;;;;;;;;;5083168;28;20028;-76
2022/03/03 04:31:03;;;;;;;4.07;2.90;;;;;;;;;;5083226;28;20032;-76
2022/03/03 04:33:29;;;;;;;4.55;2.50;;;;;;;;;;5083399;28;20032;-77
2022/03/03 04:35:56;;;;;;;3.78;2.88;;;;;;;;;;5083353;28;20097;-76
2022/03/03 04:38:22;;;;;;;3.55;2.60;;;;;;;;;;5083117;28;20110;-71
2022/03/03 04:40:49;;;;;;;4.15;2.95;;;;;;;;;;5083272;28;20024;-70
2022/03/03 04:43:15;;;;;;;5.05;3.05;;;;;;;;;;5082900;28;20055;-70
2022/03/03 04:45:42;;;;;;;5.70;2.90;;;;;;;;;;5083120;28;20020;-70
2022/03/03 04:48:09;;;;;;;4.63;2.70;;;;;;;;;;5082681;28;20491;-70
2022/03/03 04:50:35;;;;;;;4.97;2.88;;;;;;;;;;5083168;28;20099;-71
2022/03/03 04:53:01;;;;;;;5.50;3.08;;;;;;;;;;5082670;28;20035;-72
2022/03/03 04:55:28;;;;;;;5.13;3.08;;;;;;;;;;5082823;28;20025;-71
2022/03/03 04:57:54;;;;;;;3.80;2.65;;;;;;;;;;5082976;28;20485;-70
2022/03/03 05:00:21;;;;;;;4.68;2.55;;;;;;;;;;5081804;28;20032;-78
2022/03/03 05:02:47;;;;;;;5.30;2.80;;;;;;;;;;5084277;28;20507;-76
2022/03/03 05:05:13;;;;;;;6.28;3.40;;;;;;;;;;5085112;28;20044;-75
2022/03/03 05:07:39;;;;;;;4.78;3.00;;;;;;;;;;5085181;28;20103;-74
2022/03/03 05:10:06;;;;;;;7.10;3.33;;;;;;;;;;5085098;28;20502;-71
2022/03/03 05:12:32;;;;;;;5.88;3.75;;;;;;;;;;5085043;28;20024;-71
2022/03/03 05:14:58;;;;;;;4.05;2.63;;;;;;;;;;5084927;28;20027;-72
2022/03/03 05:17:25;;;;;;;4.55;2.80;;;;;;;;;;5084368;28;20043;-77
2022/03/03 05:19:51;;;;;;;5.45;3.38;;;;;;;;;;5083630;28;20024;-73
2022/03/03 05:22:17;;;;;;;4.80;3.25;;;;;;;;;;5084723;28;20031;-77
2022/03/03 05:24:49;;;;;;;4.95;2.72;;;;;;;;;;5076690;28;20025;-74
2022/03/03 05:27:15;;;;;;;3.90;2.67;;;;;;;;;;5071559;28;20622;-70
2022/03/03 05:29:41;;;;;;;4.82;2.65;;;;;;;;;;5081778;28;20525;-70
2022/03/03 05:32:08;;;;;;;4.38;2.80;;;;;;;;;;5079661;28;20458;-76
2022/03/03 05:34:34;;;;;;;4.22;2.63;;;;;;;;;;5082050;28;20089;-72
2022/03/03 05:37:00;;;;;;;5.90;2.67;;;;;;;;;;5082011;28;20752;-76
2022/03/03 05:39:28;;;;;;;4.78;2.75;;;;;;;;;;5081515;28;20570;-76
2022/03/03 05:41:57;;;;;;;3.75;2.97;;;;;;;;;;5081686;28;20830;-71
2022/03/03 05:44:24;;;;;;;3.83;2.78;;;;;;;;;;5081959;28;20519;-70
2022/03/03 05:46:51;;;;;;;4.38;2.85;;;;;;;;;;5081774;28;20039;-70
2022/03/03 05:49:20;;;;;;;4.30;2.60;;;;;;;;;;5081139;28;20028;-72
2022/03/03 05:51:47;;;;;;;4.90;2.78;;;;;;;;;;5081742;28;20032;-73
2022/03/03 05:54:13;;;;;;;5.03;2.88;;;;;;;;;;5081654;28;20028;-70
2022/03/03 05:56:40;;;;;;;4.05;2.70;;;;;;;;;;5081640;28;20036;-70
2022/03/03 05:59:07;;;;;;;4.03;2.92;;;;;;;;;;5081356;28;20028;-70
2022/03/03 06:01:37;;;;;;;8.85;3.08;;;;;;;;;;5080847;28;20046;-70
2022/03/03 06:04:03;;;;;;;3.40;2.55;;;;;;;;;;5081649;28;20101;-71
2022/03/03 06:06:31;;;;;;;3.03;2.65;;;;;;;;;;5081628;28;20035;-76
2022/03/03 06:09:11;;;;;;;4.68;2.50;;;;;;;;;;5081699;28;20028;-75
2022/03/03 06:11:42;;;;;;;3.40;2.70;;;;;;;;;;5062807;28;20553;-70
2022/03/03 06:14:09;;;;;;;3.60;2.33;;;;;;;;;;5080728;28;20024;-71
2022/03/03 06:16:35;;;;;;;4.13;2.25;;;;;;;;;;5081776;28;20032;-75
2022/03/03 06:19:02;;;;;;;4.90;3.10;;;;;;;;;;5081181;28;20024;-75
2022/03/03 06:21:29;;;;;;;3.80;2.70;;;;;;;;;;5081378;28;20035;-73
2022/03/03 06:23:56;;;;;;;4.18;2.80;;;;;;;;;;5081082;28;20044;-73
2022/03/03 06:26:22;;;;;;;6.30;2.65;;;;;;;;;;5081314;28;20031;-75
2022/03/03 06:28:48;;;;;;;6.03;2.50;;;;;;;;;;5081174;28;20500;-75
2022/03/03 06:31:15;;;;;;;5.35;2.65;;;;;;;;;;5078223;28;20580;-76
2022/03/03 06:33:41;;;;;;;5.00;2.85;;;;;;;;;;5081050;28;20032;-74
2022/03/03 06:36:08;;;;;;;18.83;6.72;;;;;;;;;;5080665;28;20436;-72
2022/03/03 06:38:35;;;;;;;33.42;13.38;;;;;;;;;;5081163;28;20058;-75
2022/03/03 06:41:02;;;;;;;36.17;16.48;;;;;;;;;;5080402;28;20024;-75
2022/03/03 06:43:29;;;;;;;22.20;11.65;;;;;;;;;;5080818;28;20032;-75
2022/03/03 06:45:56;;;;;;;6.97;4.18;;;;;;;;;;5080772;28;20034;-76
2022/03/03 06:48:23;;;;;;;6.40;4.10;;;;;;;;;;5080056;28;20031;-75
2022/03/03 06:50:53;;;;;;;6.57;3.75;;;;;;;;;;5080921;28;20028;-75
2022/03/03 06:53:26;;;;;;;6.25;3.55;;;;;;;;;;5080283;28;20028;-74
2022/03/03 06:55:54;;;;;;;8.90;5.28;;;;;;;;;;5080354;28;20031;-76
2022/03/03 06:58:26;;;;;;;8.18;4.50;;;;;;;;;;5080434;28;20089;-75
2022/03/03 07:00:52;;;;;;;;;;;;;;;;;;5081236;28;20020;-76
2022/03/03 07:03:20;;;;;;;9.05;5.05;;;;;;;;;;5080167;28;19962;-76
2022/03/03 07:05:46;;;;;;;10.10;5.35;;;;;;;;;;5080712;28;20103;-73
2022/03/03 07:08:12;;;;;;;10.65;6.50;;;;;;;;;;5080116;28;20085;-76
2022/03/03 07:10:39;;;;;;;8.10;5.63;;;;;;;;;;5079687;28;20020;-76
2022/03/03 07:13:05;;;;;;;14.05;6.63;;;;;;;;;;5079444;28;20028;-75
2022/03/03 07:15:34;;;;;;;15.02;6.13;;;;;;;;;;5061780;28;20024;-72
2022/03/03 07:18:09;;;;;;;11.65;6.38;;;;;;;;;;5080419;28;20039;-74
2022/03/03 07:20:44;;;;;;;8.98;6.05;;;;;;;;;;5080354;28;20032;-77
2022/03/03 07:23:23;;;;;;;12.23;6.53;;;;;;;;;;5079937;28;20392;-71
2022/03/03 07:25:54;;;;;;;8.63;5.10;;;;;;;;;;5079978;28;20020;-76
2022/03/03 07:28:20;;;;;;;10.07;5.85;;;;;;;;;;5080098;28;20028;-75
2022/03/03 07:30:49;;;;;;;7.47;5.57;;;;;;;;;;5077964;28;20498;-72
2022/03/03 07:33:33;;;;;;;10.15;6.20;;;;;;;;;;5080161;28;20029;-75
2022/03/03 07:36:01;;;;;;;13.95;8.70;;;;;;;;;;5079621;28;20495;-73
2022/03/03 07:38:30;;;;;;;12.57;8.07;;;;;;;;;;5080384;28;20499;-72
2022/03/03 07:40:57;;;;;;;12.65;8.65;;;;;;;;;;5062162;28;20028;-76
2022/03/03 07:43:23;;;;;;;14.20;9.57;;;;;;;;;;5061126;28;20443;-76
2022/03/03 07:45:49;;;;;;;16.60;9.70;;;;;;;;;;5079873;28;20024;-76
2022/03/03 07:48:16;;;;;;;15.20;7.88;;;;;;;;;;5079463;28;20031;-75
2022/03/03 07:50:42;;;;;;;8.05;5.80;;;;;;;;;;5079596;28;20085;-76
2022/03/03 07:53:10;;;;;;;11.60;7.93;;;;;;;;;;5079580;28;20039;-72
2022/03/03 07:55:42;;;;;;;10.60;6.82;;;;;;;;;;5079689;28;20264;-76
2022/03/03 07:58:12;;;;;;;10.95;6.38;;;;;;;;;;5079519;28;20545;-71
2022/03/03 08:00:43;;;;;;;13.30;8.98;;;;;;;;;;5078966;28;20032;-76
2022/03/03 08:03:13;;;;;;;15.60;8.68;;;;;;;;;;5079399;28;20419;-76
2022/03/03 08:05:40;;;;;;;14.45;8.32;;;;;;;;;;5079873;28;20055;-73
2022/03/03 08:08:09;;;;;;;15.18;9.90;;;;;;;;;;5079939;28;20032;-75
2022/03/03 08:10:37;;;;;;;25.33;9.85;;;;;;;;;;5079400;28;20020;-77
2022/03/03 08:13:03;;;;;;;18.17;9.77;;;;;;;;;;5079104;28;20032;-76
2022/03/03 08:15:29;;;;;;;14.95;9.57;;;;;;;;;;5078947;28;20055;-75
2022/03/03 08:17:56;;;;;;;13.98;8.45;;;;;;;;;;5079489;28;20036;-72
2022/03/03 08:20:22;;;;;;;13.35;7.75;;;;;;;;;;5079684;28;20028;-74
2022/03/03 08:22:49;;;;;;;7.18;4.75;;;;;;;;;;5061014;28;20085;-76
2022/03/03 08:25:16;;;;;;;6.30;4.10;;;;;;;;;;5079278;28;20039;-72
2022/03/03 08:27:42;;;;;;;8.50;3.85;;;;;;;;;;5079977;28;20385;-75
2022/03/03 08:30:10;;;;;;;7.53;2.90;;;;;;;;;;5061305;28;20660;-75
2022/03/03 08:32:38;;;;;;;8.25;3.53;;;;;;;;;;5077834;28;20028;-77
2022/03/03 08:35:05;;;;;;;4.53;3.13;;;;;;;;;;5079174;28;20089;-75
2022/03/03 08:37:42;;;;;;;6.45;3.65;;;;;;;;;;5078821;28;20036;-76
2022/03/03 08:40:09;;;;;;;6.93;4.70;;;;;;;;;;5079268;28;20024;-76
2022/03/03 08:42:36;;;;;;;5.68;4.00;;;;;;;;;;5079551;28;20510;-76
2022/03/03 08:45:04;;;;;;;6.05;4.00;;;;;;;;;;5079396;28;20024;-77
2022/03/03 08:47:32;;;;;;;10.35;3.90;;;;;;;;;;5079543;28;20023;-75
2022/03/03 08:50:09;;;;;;;6.68;3.90;;;;;;;;;;5078716;28;20031;-75
2022/03/03 08:52:39;;;;;;;4.93;3.65;;;;;;;;;;5079734;28;20447;-77
2022/03/03 08:55:06;;;;;;;4.13;3.30;;;;;;;;;;5082317;28;20050;-76
2022/03/03 08:57:32;;;;;;;14.05;9.90;;;;;;;;;;5080810;28;20047;-74
2022/03/03 08:59:58;;;;;;;12.02;10.10;;;;;;;;;;5081591;28;20031;-70
2022/03/03 09:02:24;;;;;;;13.30;9.50;;;;;;;;;;5082014;28;20042;-73
2022/03/03 09:04:50;;;;;;;9.65;6.90;;;;;;;;;;5067612;28;20044;-72
2022/03/03 09:07:18;;;;;;;6.75;5.13;;;;;;;;;;5082416;28;20052;-73
2022/03/03 09:09:44;;;;;;;6.78;4.63;;;;;;;;;;5082628;28;20032;-72
2022/03/03 09:12:13;;;;;;;10.35;7.60;;;;;;;;;;5082391;28;20028;-71
2022/03/03 09:14:39;;;;;;;9.15;7.05;;;;;;;;;;5083536;28;20034;-70
2022/03/03 09:17:06;;;;;;;8.43;5.28;;;;;;;;;;5085017;28;20647;-70
2022/03/03 09:19:32;;;;;;;10.10;4.20;;;;;;;;;;5085124;28;20020;-71
2022/03/03 09:21:58;;;;;;;4.50;3.50;;;;;;;;;;5084835;28;20042;-71
2022/03/03 09:24:24;;;;;;;8.38;3.95;;;;;;;;;;5080346;28;20592;-72
2022/03/03 09:26:51;;;;;;;5.65;3.58;;;;;;;;;;5045793;28;20033;-76
2022/03/03 09:29:18;;;;;;;6.63;3.95;;;;;;;;;;5046181;28;20029;-71
2022/03/03 09:31:45;;;;;;;10.15;5.25;;;;;;;;;;5064293;28;20055;-75
2022/03/03 09:34:11;;;;;;;9.05;5.03;;;;;;;;;;5073016;28;20028;-71
2022/03/03 09:36:38;;;;;;;6.55;5.30;;;;;;;;;;5083265;28;20093;-73
2022/03/03 09:39:04;;;;;;;7.97;5.95;;;;;;;;;;5083913;28;20027;-70
2022/03/03 09:41:31;;;;;;;9.25;6.95;;;;;;;;;;5083546;28;20043;-71
2022/03/03 09:43:57;;;;;;;12.15;8.10;;;;;;;;;;5082299;28;20016;-71
2022/03/03 09:46:24;;;;;;;8.95;6.85;;;;;;;;;;5071073;28;20025;-71
2022/03/03 09:48:50;;;;;;;12.25;7.07;;;;;;;;;;5059434;28;20492;-71
2022/03/03 09:51:16;;;;;;;8.88;7.22;;;;;;;;;;5083455;28;20028;-71
2022/03/03 09:53:44;;;;;;;10.98;6.38;;;;;;;;;;5083268;28;20025;-71
2022/03/03 09:56:10;;;;;;;12.45;6.63;;;;;;;;;;5076358;28;20028;-72
2022/03/03 09:58:36;;;;;;;9.45;6.80;;;;;;;;;;5082327;28;20089;-71
2022/03/03 10:01:03;;;;;;;10.43;6.45;;;;;;;;;;5083522;28;20099;-71
2022/03/03 10:03:33;;;;;;;11.93;6.72;;;;;;;;;;5082488;28;20079;-71
2022/03/03 10:06:00;;;;;;;9.73;6.32;;;;;;;;;;5083213;28;20516;-75
2022/03/03 10:08:27;;;;;;;21.35;8.02;;;;;;;;;;5083186;28;20043;-69
2022/03/03 10:10:54;;;;;;;12.98;4.90;;;;;;;;;;5083323;28;20676;-76
2022/03/03 10:13:21;;;;;;;7.25;4.90;;;;;;;;;;5078157;28;20247;-71
2022/03/03 10:15:52;;;;;;;6.63;4.20;;;;;;;;;;5078707;28;20032;-76
2022/03/03 10:18:18;;;;;;;7.65;4.88;;;;;;;;;;5083274;28;20119;-74
2022/03/03 10:20:58;;;;;;;6.43;4.30;;;;;;;;;;5083627;28;20115;-70
2022/03/03 10:23:29;;;;;;;9.25;4.75;;;;;;;;;;5083567;28;20035;-81
2022/03/03 10:25:56;;;;;;;8.25;5.38;;;;;;;;;;5077534;28;20468;-71
2022/03/03 10:28:24;;;;;;;6.82;4.38;;;;;;;;;;5061167;28;20024;-72
2022/03/03 10:30:50;;;;;;;8.25;4.70;;;;;;;;;;5061006;28;20568;-74
2022/03/03 10:33:17;;;;;;;5.93;4.85;;;;;;;;;;5076919;28;20028;-71
2022/03/03 10:35:57;;;;;;;7.20;4.97;;;;;;;;;;5080636;28;20668;-72
2022/03/03 10:38:23;;;;;;;6.78;4.68;;;;;;;;;;5080627;28;20483;-72
2022/03/03 10:40:49;;;;;;;7.38;4.28;;;;;;;;;;5081235;28;20553;-71
2022/03/03 10:43:15;;;;;;;6.38;4.18;;;;;;;;;;5079101;28;20036;-79
2022/03/03 10:45:59;;;;;;;6.05;3.72;;;;;;;;;;5080904;28;20081;-77
2022/03/03 10:48:26;;;;;;;8.27;4.65;;;;;;;;;;5080845;28;20024;-71
2022/03/03 10:50:54;;;;;;;7.35;4.70;;;;;;;;;;5080351;28;20027;-70
2022/03/03 10:53:21;;;;;;;8.10;4.20;;;;;;;;;;5071182;28;20107;-74
2022/03/03 10:56:00;;;;;;;5.85;3.67;;;;;;;;;;5060301;28;20025;-77
2022/03/03 10:58:47;;;;;;;5.47;3.75;;;;;;;;;;5060296;28;20033;-80
2022/03/03 11:01:14;;;;;;;4.60;3.90;;;;;;;;;;5059804;28;20028;-74
2022/03/03 11:03:40;;;;;;;7.28;4.25;;;;;;;;;;5059879;28;20526;-74
2022/03/03 11:06:07;;;;;;;7.55;4.28;;;;;;;;;;5052410;28;20068;-79
2022/03/03 11:08:34;;;;;;;6.15;3.83;;;;;;;;;;5079944;28;20060;-71
2022/03/03 11:11:01;;;;;;;10.23;5.00;;;;;;;;;;5079845;28;20032;-72
2022/03/03 11:13:27;;;;;;;6.35;4.60;;;;;;;;;;5080360;28;20038;-76
2022/03/03 11:15:55;;;;;;;8.40;4.55;;;;;;;;;;5079689;28;20036;-80
2022/03/03 11:18:21;;;;;;;6.00;4.28;;;;;;;;;;5079730;28;20178;-70
2022/03/03 11:20:47;;;;;;;5.47;3.90;;;;;;;;;;5080465;28;20081;-72
2022/03/03 11:23:13;;;;;;;7.43;4.75;;;;;;;;;;5062344;28;20036;-73
2022/03/03 11:25:39;;;;;;;19.25;6.00;;;;;;;;;;5079785;28;20468;-73
2022/03/03 11:28:07;;;;;;;25.00;10.93;;;;;;;;;;5079677;28;20136;-75
2022/03/03 11:30:34;;;;;;;8.20;4.65;;;;;;;;;;5079892;28;20027;-71
2022/03/03 11:33:19;;;;;;;5.95;3.78;;;;;;;;;;5079755;28;20073;-78
2022/03/03 11:35:59;;;;;;;13.52;4.68;;;;;;;;;;5080022;28;20389;-71
2022/03/03 11:38:26;;;;;;;6.68;3.72;;;;;;;;;;5079320;28;20565;-72
2022/03/03 11:40:52;;;;;;;6.22;3.40;;;;;;;;;;5079827;28;20016;-71
2022/03/03 11:43:18;;;;;;;5.90;3.03;;;;;;;;;;5078251;28;20442;-78
2022/03/03 11:45:52;;;;;;;5.80;4.00;;;;;;;;;;5079738;28;20029;-73
2022/03/03 11:48:22;;;;;;;6.80;3.20;;;;;;;;;;5080156;28;20035;-72
2022/03/03 11:50:54;;;;;;;5.57;3.63;;;;;;;;;;5079672;28;20072;-75
2022/03/03 11:53:26;;;;;;;10.18;6.45;;;;;;;;;;5079904;28;20032;-71
2022/03/03 11:55:55;;;;;;;11.07;6.78;;;;;;;;;;5061864;28;20048;-75
2022/03/03 11:58:27;;;;;;;6.47;3.13;;;;;;;;;;5079861;28;20028;-73
2022/03/03 12:01:01;;;;;;;4.53;2.60;;;;;;;;;;5079963;28;20032;-72
2022/03/03 12:03:28;;;;;;;10.30;2.80;;;;;;;;;;5082259;28;20048;-70
2022/03/03 12:06:11;;;;;;;9.88;3.22;;;;;;;;;;5082098;28;20069;-73
2022/03/03 12:08:37;;;;;;;4.38;3.03;;;;;;;;;;5081540;28;20020;-69
2022/03/03 12:11:08;;;;;;;5.10;2.90;;;;;;;;;;5070823;28;20025;-76
2022/03/03 12:13:41;;;;;;;8.05;2.70;;;;;;;;;;5062130;28;20021;-69
2022/03/03 12:16:26;;;;;;;4.90;2.78;;;;;;;;;;5061201;28;20084;-76
2022/03/03 12:18:54;;;;;;;6.75;2.60;;;;;;;;;;5061202;28;20661;-74
2022/03/03 12:21:21;;;;;;;4.13;2.83;;;;;;;;;;5061265;28;20024;-73
2022/03/03 12:23:47;;;;;;;5.60;2.65;;;;;;;;;;5077982;28;20797;-69
2022/03/03 12:26:13;;;;;;;5.60;3.38;;;;;;;;;;5081823;28;20512;-76
2022/03/03 12:28:47;;;;;;;6.00;3.28;;;;;;;;;;5081357;28;20468;-72
2022/03/03 12:31:21;;;;;;;6.85;2.95;;;;;;;;;;5067296;28;20035;-71
2022/03/03 12:34:05;;;;;;;4.63;2.97;;;;;;;;;;5085488;28;20020;-71
2022/03/03 12:36:32;;;;;;;4.45;3.00;;;;;;;;;;5079247;28;20476;-78
2022/03/03 12:38:58;;;;;;;4.82;2.88;;;;;;;;;;5082871;28;20550;-75
2022/03/03 12:41:28;;;;;;;7.15;3.47;;;;;;;;;;5083680;28;20031;-72
2022/03/03 12:44:03;;;;;;;6.57;3.33;;;;;;;;;;5065661;28;20626;-74
2022/03/03 12:46:30;;;;;;;26.20;3.38;;;;;;;;;;5083191;28;20032;-75
2022/03/03 12:48:56;;;;;;;7.68;2.92;;;;;;;;;;5082889;28;20032;-75
2022/03/03 12:51:24;;;;;;;4.30;3.33;;;;;;;;;;5083028;28;20081;-75
2022/03/03 12:53:52;;;;;;;6.18;3.30;;;;;;;;;;5083230;28;20032;-76
2022/03/03 12:56:22;;;;;;;5.63;3.22;;;;;;;;;;5083322;28;20407;-75
2022/03/03 12:58:48;;;;;;;6.35;3.60;;;;;;;;;;5082912;28;20036;-75
2022/03/03 13:01:19;;;;;;;7.10;3.70;;;;;;;;;;5081292;28;20043;-75
2022/03/03 13:03:45;;;;;;;7.63;4.00;;;;;;;;;;5082529;28;20063;-78
2022/03/03 13:06:12;;;;;;;6.15;3.60;;;;;;;;;;5082528;28;20035;-79
2022/03/03 13:08:38;;;;;;;6.68;3.60;;;;;;;;;;5082030;28;20032;-78
2022/03/03 13:11:08;;;;;;;5.90;3.47;;;;;;;;;;5083188;28;20020;-76
2022/03/03 13:13:45;;;;;;;7.05;3.88;;;;;;;;;;5082615;28;20024;-77
2022/03/03 13:16:12;;;;;;;6.53;3.40;;;;;;;;;;5082950;28;20039;-78
2022/03/03 13:18:38;;;;;;;7.32;3.70;;;;;;;;;;5080118;28;20110;-78
2022/03/03 13:21:06;;;;;;;4.68;3.70;;;;;;;;;;5064545;28;20515;-78
2022/03/03 13:23:32;;;;;;;7.30;4.45;;;;;;;;;;5064482;28;20484;-78
2022/03/03 13:26:15;;;;;;;6.50;4.20;;;;;;;;;;5082170;28;20028;-78
2022/03/03 13:29:05;;;;;;;5.20;3.58;;;;;;;;;;5063991;28;20490;-74
2022/03/03 13:31:31;;;;;;;6.65;3.90;;;;;;;;;;5082857;28;20032;-74
2022/03/03 13:34:03;;;;;;;5.88;3.63;;;;;;;;;;5082087;28;20024;-78
2022/03/03 13:36:29;;;;;;;6.60;3.70;;;;;;;;;;5081128;28;20097;-79
2022/03/03 13:39:00;;;;;;;6.93;3.55;;;;;;;;;;5081595;28;20252;-78
2022/03/03 13:41:26;;;;;;;5.50;3.83;;;;;;;;;;5081800;28;20028;-77
2022/03/03 13:44:10;;;;;;;5.88;4.05;;;;;;;;;;5076808;28;20027;-74
2022/03/03 13:46:37;;;;;;;5.32;3.53;;;;;;;;;;5079883;28;20039;-76
2022/03/03 13:49:03;;;;;;;6.00;3.67;;;;;;;;;;5079248;28;20520;-77
2022/03/03 13:51:30;;;;;;;4.60;3.83;;;;;;;;;;5077034;28;20388;-77
2022/03/03 13:53:56;;;;;;;7.95;4.57;;;;;;;;;;5082156;28;20491;-75
2022/03/03 13:56:26;;;;;;;5.35;4.13;;;;;;;;;;5070038;28;20036;-70
2022/03/03 13:59:11;;;;;;;5.60;3.97;;;;;;;;;;5050757;28;20061;-76
2022/03/03 14:01:38;;;;;;;10.48;5.03;;;;;;;;;;5081821;28;20065;-75
2022/03/03 14:04:16;;;;;;;6.97;4.78;;;;;;;;;;5081791;28;20062;-78
2022/03/03 14:06:43;;;;;;;6.65;4.68;;;;;;;;;;5081675;28;20027;-78
2022/03/03 14:09:09;;;;;;;7.07;4.70;;;;;;;;;;5081294;28;20047;-77
2022/03/03 14:11:36;;;;;;;7.68;6.35;;;;;;;;;;5080385;28;20441;-71
2022/03/03 14:14:02;;;;;;;16.42;6.85;;;;;;;;;;5081443;28;20091;-72
2022/03/03 14:16:32;;;;;;;9.43;6.72;;;;;;;;;;5081239;28;20016;-70
2022/03/03 14:18:59;;;;;;;9.38;5.95;;;;;;;;;;5081529;28;20028;-77
2022/03/03 14:21:25;;;;;;;9.48;6.90;;;;;;;;;;5081226;28;20799;-75
2022/03/03 14:23:52;;;;;;;10.07;6.25;;;;;;;;;;5080850;28;20039;-75
2022/03/03 14:26:20;;;;;;;11.98;5.95;;;;;;;;;;5081524;28;20024;-79
2022/03/03 14:28:48;;;;;;;11.50;6.22;;;;;;;;;;5081062;28;20357;-78
2022/03/03 14:31:14;;;;;;;7.35;4.40;;;;;;;;;;5079570;28;20036;-71
2022/03/03 14:33:41;;;;;;;9.32;4.65;;;;;;;;;;5074302;28;20819;-82
2022/03/03 14:36:08;;;;;;;4.95;3.95;;;;;;;;;;5082508;28;20032;-75
2022/03/03 14:38:35;;;;;;;7.72;4.47;;;;;;;;;;5072281;28;20052;-72
2022/03/03 14:41:01;;;;;;;6.47;4.50;;;;;;;;;;5080816;28;20024;-71
2022/03/03 14:43:29;;;;;;;10.35;7.28;;;;;;;;;;5078212;28;20085;-84
2022/03/03 14:45:55;;;;;;;9.27;7.03;;;;;;;;;;5068908;28;20022;-84